createdAt,value
2022-11-07T00:05:20.511Z,8.80
2022-11-07T00:07:47.215Z,10.50
2022-11-07T00:10:13.909Z,8.90
2022-11-07T00:12:40.666Z,11.40
2022-11-07T00:15:07.604Z,7.40
2022-11-07T00:17:34.354Z,9.00
2022-11-07T00:20:01.110Z,7.20
2022-11-07T00:22:27.872Z,9.00
2022-11-07T00:24:54.623Z,9.10
2022-11-07T00:27:21.374Z,10.50
2022-11-07T00:29:48.184Z,7.00
2022-11-07T00:32:14.951Z,11.40
2022-11-07T00:34:41.664Z,9.10
2022-11-07T00:37:08.453Z,10.10
2022-11-07T00:39:35.172Z,8.90
2022-11-07T00:42:01.966Z,11.60
2022-11-07T00:44:28.651Z,5.80
2022-11-07T00:46:55.384Z,11.30
2022-11-07T00:49:23.261Z,9.20
2022-11-07T00:51:49.983Z,9.30
2022-11-07T00:54:16.730Z,9.30
2022-11-07T00:56:43.448Z,9.30
2022-11-07T00:59:10.188Z,9.30
2022-11-07T01:01:37.038Z,10.50
2022-11-07T01:04:22.460Z,10.90
2022-11-07T01:06:49.226Z,9.40
2022-11-07T01:09:17.325Z,11.20
2022-11-07T01:11:44.083Z,9.40
2022-11-07T01:14:11.711Z,10.90
2022-11-07T01:16:38.990Z,10.50
2022-11-07T01:19:06.017Z,9.40
2022-11-07T01:21:32.749Z,10.70
2022-11-07T01:24:00.316Z,9.50
2022-11-07T01:26:27.145Z,11.20
2022-11-07T01:28:53.923Z,8.80
2022-11-07T01:31:20.705Z,9.50
2022-11-07T01:33:47.465Z,6.70
2022-11-07T01:36:15.008Z,9.40
2022-11-07T01:38:42.397Z,9.50
2022-11-07T01:41:21.754Z,11.00
2022-11-07T01:44:00.890Z,9.50
2022-11-07T01:46:31.820Z,9.50
2022-11-07T01:48:58.552Z,7.20
2022-11-07T01:51:25.279Z,12.10
2022-11-07T01:53:51.987Z,8.30
2022-11-07T01:56:18.842Z,11.30
2022-11-07T01:58:45.591Z,8.10
2022-11-07T02:01:12.471Z,11.70
2022-11-07T02:03:39.682Z,9.50
2022-11-07T02:06:07.871Z,10.00
2022-11-07T02:08:34.700Z,6.80
2022-11-07T02:11:02.695Z,9.30
2022-11-07T02:13:29.954Z,6.80
2022-11-07T02:15:56.761Z,11.50
2022-11-07T02:18:23.549Z,9.10
2022-11-07T02:20:50.420Z,10.70
2022-11-07T02:23:19.335Z,9.00
2022-11-07T02:25:46.125Z,11.50
2022-11-07T02:28:12.890Z,7.00
2022-11-07T02:30:39.695Z,8.80
2022-11-07T02:33:22.895Z,10.80
2022-11-07T02:35:50.154Z,7.50
2022-11-07T02:38:21.305Z,9.50
2022-11-07T02:40:49.832Z,8.70
2022-11-07T02:43:16.998Z,10.60
2022-11-07T02:45:44.407Z,6.90
2022-11-07T02:48:11.186Z,8.50
2022-11-07T02:50:38.023Z,6.70
2022-11-07T02:53:04.805Z,8.60
2022-11-07T02:55:31.545Z,8.50
2022-11-07T02:57:58.322Z,8.50
2022-11-07T03:00:25.057Z,6.40
2022-11-07T03:02:51.990Z,8.80
2022-11-07T03:05:19.071Z,8.50
2022-11-07T03:07:46.314Z,8.90
2022-11-07T03:10:13.129Z,6.50
2022-11-07T03:12:39.920Z,10.80
2022-11-07T03:15:07.194Z,5.70
2022-11-07T03:17:34.056Z,8.30
2022-11-07T03:20:00.824Z,8.00
2022-11-07T03:22:27.712Z,8.30
2022-11-07T03:24:54.465Z,8.30
2022-11-07T03:27:21.311Z,9.90
2022-11-07T03:29:48.045Z,8.20
2022-11-07T03:32:14.846Z,9.90
2022-11-07T03:34:41.590Z,8.20
2022-11-07T03:37:08.400Z,9.90
2022-11-07T03:39:35.151Z,8.10
2022-11-07T03:42:01.966Z,9.70
2022-11-07T03:44:28.707Z,6.00
2022-11-07T03:46:55.431Z,8.00
2022-11-07T03:49:22.252Z,8.00
2022-11-07T03:51:48.987Z,9.10
2022-11-07T03:54:15.750Z,8.00
2022-11-07T03:56:42.539Z,6.70
2022-11-07T03:59:09.297Z,10.20
2022-11-07T04:01:36.155Z,6.70
2022-11-07T04:04:03.023Z,8.40
2022-11-07T04:06:29.785Z,6.90
2022-11-07T04:08:56.551Z,8.60
2022-11-07T04:11:41.684Z,7.90
2022-11-07T04:14:27.193Z,9.60
2022-11-07T04:17:12.675Z,4.80
2022-11-07T04:19:39.395Z,10.00
2022-11-07T04:22:06.164Z,7.90
2022-11-07T04:24:32.925Z,7.20
2022-11-07T04:27:18.400Z,8.00
2022-11-07T04:29:45.144Z,9.80
2022-11-07T04:32:11.938Z,7.90
2022-11-07T04:34:38.706Z,9.80
2022-11-07T04:37:05.477Z,5.80
2022-11-07T04:39:32.231Z,10.70
2022-11-07T04:41:59.047Z,6.70
2022-11-07T04:44:25.832Z,8.90
2022-11-07T04:46:52.560Z,10.40
2022-11-07T04:49:19.574Z,6.60
2022-11-07T04:51:46.347Z,10.20
2022-11-07T04:54:13.675Z,7.90
2022-11-07T04:56:40.779Z,9.00
2022-11-07T04:59:07.720Z,7.80
2022-11-07T05:01:34.538Z,10.40
2022-11-07T05:04:01.323Z,6.20
2022-11-07T05:06:28.177Z,9.30
2022-11-07T05:08:55.008Z,7.70
2022-11-07T05:11:21.766Z,10.50
2022-11-07T05:13:48.571Z,7.70
2022-11-07T05:16:17.163Z,7.00
2022-11-07T05:18:43.981Z,7.70
2022-11-07T05:21:11.036Z,5.80
2022-11-07T05:23:38.231Z,10.40
2022-11-07T05:26:05.078Z,7.70
2022-11-07T05:28:38.752Z,7.80
2022-11-07T05:31:06.627Z,7.80
2022-11-07T05:33:33.513Z,9.60
2022-11-07T05:36:29.339Z,7.80
2022-11-07T05:38:56.098Z,7.90
2022-11-07T05:41:22.871Z,6.30
2022-11-07T05:43:49.692Z,10.30
2022-11-07T05:46:16.445Z,8.00
2022-11-07T05:48:43.223Z,8.70
2022-11-07T05:51:10.087Z,8.10
2022-11-07T05:53:36.974Z,8.50
2022-11-07T05:56:03.849Z,8.10
2022-11-07T05:58:30.714Z,8.10
2022-11-07T06:01:00.535Z,8.10
2022-11-07T06:03:27.340Z,9.30
2022-11-07T06:05:54.164Z,8.20
2022-11-07T06:08:21.037Z,10.90
2022-11-07T06:10:47.798Z,8.20
2022-11-07T06:13:15.188Z,11.10
2022-11-07T06:15:42.501Z,5.50
2022-11-07T06:18:11.638Z,11.00
2022-11-07T06:20:38.529Z,5.50
2022-11-07T06:23:06.812Z,8.30
2022-11-07T06:25:33.739Z,6.50
2022-11-07T06:28:01.009Z,8.30
2022-11-07T06:30:27.785Z,8.20
2022-11-07T06:32:54.656Z,9.70
2022-11-07T06:35:21.434Z,8.30
2022-11-07T06:37:48.235Z,8.20
2022-11-07T06:40:15.095Z,6.80
2022-11-07T06:42:41.918Z,8.40
2022-11-07T06:45:08.915Z,8.40
2022-11-07T06:47:35.712Z,8.50
2022-11-07T06:50:02.617Z,8.50
2022-11-07T06:52:29.395Z,11.10
2022-11-07T06:54:56.294Z,7.50
2022-11-07T06:57:23.092Z,10.70
2022-11-07T06:59:51.865Z,8.70
2022-11-07T07:02:37.079Z,11.20
2022-11-07T07:05:05.911Z,8.80
2022-11-07T07:07:32.705Z,8.80
2022-11-07T07:09:59.442Z,8.90
2022-11-07T07:12:26.632Z,9.20
2022-11-07T07:14:53.384Z,9.00
2022-11-07T07:17:20.175Z,10.50
2022-11-07T07:19:46.930Z,9.20
2022-11-07T07:22:13.982Z,11.60
2022-11-07T07:24:40.806Z,9.40
2022-11-07T07:27:07.708Z,9.40
2022-11-07T07:29:34.426Z,9.60
2022-11-07T07:32:01.182Z,11.30
2022-11-07T07:34:27.919Z,9.80
2022-11-07T07:36:54.697Z,11.20
2022-11-07T07:39:21.488Z,7.80
2022-11-07T07:41:50.092Z,10.10
2022-11-07T07:44:20.834Z,7.90
2022-11-07T07:46:47.665Z,10.40
2022-11-07T07:49:14.424Z,9.10
2022-11-07T07:51:41.184Z,10.60
2022-11-07T07:54:07.946Z,10.60
2022-11-07T07:56:34.720Z,10.70
2022-11-07T07:59:02.639Z,10.80
2022-11-07T08:01:29.547Z,10.80
2022-11-07T08:04:01.870Z,10.90
2022-11-07T08:06:29.513Z,12.50
2022-11-07T08:08:56.330Z,13.60
2022-11-07T08:11:23.076Z,11.00
2022-11-07T08:13:49.907Z,11.00
2022-11-07T08:16:16.657Z,8.80
2022-11-07T08:18:43.459Z,11.10
2022-11-07T08:21:10.600Z,9.50
2022-11-07T08:23:37.494Z,11.90
2022-11-07T08:26:04.757Z,7.90
2022-11-07T08:28:32.490Z,11.30
2022-11-07T08:31:00.123Z,11.30
2022-11-07T08:33:27.142Z,11.40
2022-11-07T08:35:54.642Z,9.20
2022-11-07T08:38:21.607Z,11.60
2022-11-07T08:40:49.186Z,11.80
2022-11-07T08:43:18.391Z,12.10
2022-11-07T08:45:45.773Z,9.00
2022-11-07T08:48:12.613Z,13.10
2022-11-07T08:50:39.471Z,12.00
2022-11-07T08:53:06.341Z,12.40
2022-11-07T08:55:33.137Z,13.10
2022-11-07T08:58:00.491Z,13.30
2022-11-07T09:00:27.304Z,12.90
2022-11-07T09:05:40.785Z,13.60
2022-11-07T09:08:07.695Z,13.60
2022-11-07T09:10:34.429Z,12.10
2022-11-07T09:13:01.241Z,13.70
2022-11-07T09:15:28.033Z,12.20
2022-11-07T09:17:54.821Z,13.80
2022-11-07T09:20:21.607Z,12.30
2022-11-07T09:22:48.577Z,13.90
2022-11-07T09:25:15.414Z,11.10
2022-11-07T09:27:42.263Z,14.00
2022-11-07T09:30:09.340Z,14.00
2022-11-07T09:32:45.008Z,14.00
2022-11-07T09:35:13.011Z,11.90
2022-11-07T09:37:40.297Z,14.10
2022-11-07T09:40:11.044Z,14.10
2022-11-07T09:43:16.785Z,14.10
2022-11-07T09:45:50.170Z,12.40
2022-11-07T09:48:18.183Z,14.20
2022-11-07T09:50:49.113Z,14.30
2022-11-07T09:53:16.199Z,14.30
2022-11-07T09:55:44.901Z,12.00
2022-11-07T09:58:14.502Z,14.40
2022-11-07T10:00:41.595Z,12.80
2022-11-07T10:03:08.875Z,14.60
2022-11-07T10:05:42.203Z,14.70
2022-11-07T10:08:14.643Z,14.70
2022-11-07T10:10:44.615Z,12.70
2022-11-07T10:13:17.627Z,14.70
2022-11-07T10:15:54.139Z,13.50
2022-11-07T10:18:43.143Z,14.80
2022-11-07T10:21:37.242Z,12.40
2022-11-07T10:24:07.897Z,14.90
2022-11-07T10:26:34.688Z,14.10
2022-11-07T10:29:10.750Z,14.90
2022-11-07T10:31:39.442Z,15.00
2022-11-07T10:34:15.722Z,15.10
2022-11-07T10:36:42.550Z,15.20
2022-11-07T10:39:15.936Z,15.30
2022-11-07T10:41:44.022Z,15.40
2022-11-07T10:44:12.608Z,15.40
2022-11-07T10:46:40.359Z,14.20
2022-11-07T10:49:16.208Z,15.50
2022-11-07T10:51:42.992Z,15.50
2022-11-07T10:54:21.869Z,15.50
2022-11-07T10:56:50.119Z,13.50
2022-11-07T10:59:24.220Z,15.70
2022-11-07T11:01:52.258Z,13.80
2022-11-07T11:04:23.080Z,15.80
2022-11-07T11:06:58.469Z,15.40
2022-11-07T11:09:28.882Z,15.90
2022-11-07T11:11:55.744Z,13.30
2022-11-07T11:14:22.777Z,16.00
2022-11-07T11:16:51.381Z,14.20
2022-11-07T11:19:21.181Z,15.90
2022-11-07T11:21:48.226Z,12.80
2022-11-07T11:24:19.709Z,15.90
2022-11-07T11:26:46.570Z,12.80
2022-11-07T11:29:28.648Z,15.80
2022-11-07T11:31:55.542Z,15.80
2022-11-07T11:34:31.996Z,15.80
2022-11-07T11:37:03.931Z,15.80
2022-11-07T11:40:03.756Z,15.80
2022-11-07T11:42:32.283Z,14.20
2022-11-07T11:44:59.970Z,15.80
2022-11-07T11:47:39.773Z,15.70
2022-11-07T11:50:12.736Z,15.80
2022-11-07T11:52:39.540Z,15.10
2022-11-07T11:55:07.718Z,15.80
2022-11-07T11:57:47.080Z,13.40
2022-11-07T12:00:16.918Z,15.80
2022-11-07T12:02:50.276Z,14.00
2022-11-07T12:05:29.225Z,15.90
2022-11-07T12:07:58.766Z,15.00
2022-11-07T12:10:32.206Z,15.90
2022-11-07T12:13:02.092Z,14.10
2022-11-07T12:15:40.890Z,15.90
2022-11-07T12:18:13.932Z,14.40
2022-11-07T12:20:40.797Z,15.90
2022-11-07T12:23:10.432Z,13.30
2022-11-07T12:25:42.628Z,15.80
2022-11-07T12:28:18.557Z,14.50
2022-11-07T12:31:04.057Z,15.80
2022-11-07T12:33:33.613Z,14.50
2022-11-07T12:36:05.293Z,16.00
2022-11-07T12:38:50.982Z,15.90
2022-11-07T12:41:25.141Z,16.00
2022-11-07T12:43:54.908Z,15.90
2022-11-07T12:46:25.376Z,16.00
2022-11-07T12:49:10.994Z,16.00
2022-11-07T12:51:40.575Z,16.00
2022-11-07T12:54:26.061Z,15.90
2022-11-07T12:56:52.876Z,15.90
2022-11-07T12:59:23.958Z,14.70
2022-11-07T13:02:03.307Z,15.80
2022-11-07T13:04:30.471Z,15.80
2022-11-07T13:06:57.259Z,15.80
2022-11-07T13:09:38.243Z,15.80
2022-11-07T13:12:23.796Z,15.80
2022-11-07T13:14:51.371Z,15.80
2022-11-07T13:17:20.129Z,15.70
2022-11-07T13:20:07.312Z,15.70
2022-11-07T13:22:35.222Z,15.60
2022-11-07T13:25:06.187Z,15.30
2022-11-07T13:27:35.522Z,15.70
2022-11-07T13:30:14.741Z,13.70
2022-11-07T13:32:41.803Z,15.60
2022-11-07T13:35:09.793Z,15.60
2022-11-07T13:37:37.102Z,15.50
2022-11-07T13:40:24.283Z,14.10
2022-11-07T13:42:55.480Z,15.40
2022-11-07T13:45:26.936Z,15.20
2022-11-07T13:47:54.860Z,15.10
2022-11-07T13:51:05.628Z,12.70
2022-11-07T13:53:33.446Z,14.90
2022-11-07T13:56:01.610Z,16.90
2022-11-07T13:58:28.568Z,14.70
2022-11-07T14:00:55.512Z,14.70
2022-11-07T14:03:23.378Z,13.30
2022-11-07T14:05:50.115Z,14.90
2022-11-07T14:08:22.724Z,12.90
2022-11-07T14:10:49.846Z,14.60
2022-11-07T14:13:20.750Z,13.70
2022-11-07T14:15:48.097Z,14.50
2022-11-07T14:18:16.227Z,13.50
2022-11-07T14:20:49.624Z,14.30
2022-11-07T14:23:16.779Z,12.70
2022-11-07T14:25:43.508Z,16.00
2022-11-07T14:28:15.126Z,14.20
2022-11-07T14:30:42.373Z,14.10
2022-11-07T14:33:18.929Z,14.10
2022-11-07T14:35:46.749Z,14.00
2022-11-07T14:38:22.455Z,12.10
2022-11-07T14:40:49.820Z,13.80
2022-11-07T14:43:18.069Z,13.80
2022-11-07T14:46:11.375Z,13.60
2022-11-07T14:48:31.762Z,11.20
2022-11-07T14:50:58.570Z,13.50
2022-11-07T14:53:25.374Z,11.80
2022-11-07T14:55:53.119Z,13.30
2022-11-07T14:58:21.305Z,10.00
2022-11-07T15:00:51.967Z,13.10
2022-11-07T15:03:19.598Z,13.00
2022-11-07T15:05:46.457Z,10.50
2022-11-07T15:08:27.274Z,11.60
2022-11-07T15:11:23.178Z,12.70
2022-11-07T15:13:50.047Z,11.40
2022-11-07T15:16:22.061Z,12.60
2022-11-07T15:19:01.013Z,11.80
2022-11-07T15:21:38.341Z,12.30
2022-11-07T15:24:24.942Z,9.60
2022-11-07T15:26:58.545Z,12.10
2022-11-07T15:29:25.294Z,12.00
2022-11-07T15:31:52.123Z,11.90
2022-11-07T15:34:33.770Z,11.90
2022-11-07T15:37:09.624Z,12.60
2022-11-07T15:39:36.380Z,9.70
2022-11-07T15:42:03.224Z,11.60
2022-11-07T15:44:29.967Z,11.50
2022-11-07T15:46:56.731Z,12.70
2022-11-07T15:49:23.583Z,10.20
2022-11-07T15:51:50.329Z,11.30
2022-11-07T15:54:18.773Z,9.30
2022-11-07T15:56:45.583Z,9.40
2022-11-07T15:59:21.987Z,9.00
2022-11-07T16:01:48.834Z,11.00
2022-11-07T16:04:15.706Z,9.40
2022-11-07T16:06:45.939Z,11.70
2022-11-07T16:09:17.646Z,10.50
2022-11-07T16:11:44.755Z,10.80
2022-11-07T16:14:42.218Z,9.60
2022-11-07T16:17:01.530Z,12.50
2022-11-07T16:19:28.797Z,10.50
2022-11-07T16:21:55.501Z,11.40
2022-11-07T16:24:22.269Z,8.50
2022-11-07T16:26:49.478Z,10.40
2022-11-07T16:29:16.215Z,10.30
2022-11-07T16:31:43.075Z,12.50
2022-11-07T16:34:10.825Z,8.30
2022-11-07T16:36:37.699Z,12.30
2022-11-07T16:39:05.457Z,9.90
2022-11-07T16:41:32.444Z,11.60
2022-11-07T16:43:59.446Z,9.70
2022-11-07T16:46:26.781Z,10.50
2022-11-07T16:48:54.352Z,7.80
2022-11-07T16:51:21.509Z,9.80
2022-11-07T16:53:48.333Z,8.50
2022-11-07T16:56:21.195Z,11.60
2022-11-07T16:58:47.951Z,7.30
2022-11-07T17:01:14.772Z,12.40
2022-11-07T17:03:41.716Z,9.30
2022-11-07T17:06:12.327Z,9.20
2022-11-07T17:08:41.301Z,9.20
2022-11-07T17:11:08.208Z,9.10
2022-11-07T17:13:35.236Z,9.10
2022-11-07T17:16:02.211Z,9.00
2022-11-07T17:18:28.974Z,9.10
2022-11-07T17:20:55.888Z,10.60
2022-11-07T17:23:29.571Z,8.90
2022-11-07T17:25:59.741Z,8.90
2022-11-07T17:28:26.646Z,7.10
2022-11-07T17:30:53.559Z,8.80
2022-11-07T17:33:20.439Z,8.80
2022-11-07T17:35:47.229Z,8.80
2022-11-07T17:38:16.281Z,7.30
2022-11-07T17:40:43.499Z,11.30
2022-11-07T17:43:10.261Z,8.70
2022-11-07T17:45:37.062Z,11.50
2022-11-07T17:48:03.838Z,6.10
2022-11-07T17:50:30.573Z,9.80
2022-11-07T17:52:57.392Z,10.90
2022-11-07T17:55:25.448Z,5.40
2022-11-07T17:57:52.369Z,11.30
2022-11-07T18:00:23.077Z,8.70
2022-11-07T18:02:50.495Z,8.50
2022-11-07T18:05:17.993Z,8.50
2022-11-07T18:07:44.826Z,6.80
2022-11-07T18:10:12.251Z,6.50
2022-11-07T18:12:39.056Z,10.30
2022-11-07T18:15:06.070Z,8.40
2022-11-07T18:17:32.925Z,8.40
2022-11-07T18:19:59.616Z,5.60
2022-11-07T18:22:26.403Z,10.40
2022-11-07T18:24:53.100Z,7.50
2022-11-07T18:27:19.973Z,11.90
2022-11-07T18:29:46.666Z,6.80
2022-11-07T18:32:13.456Z,9.70
2022-11-07T18:34:40.228Z,5.80
2022-11-07T18:37:06.958Z,8.30
2022-11-07T18:39:33.754Z,9.00
2022-11-07T18:42:00.604Z,10.00
2022-11-07T18:44:27.331Z,6.30
2022-11-07T18:46:54.112Z,10.00
2022-11-07T18:49:21.008Z,8.10
2022-11-07T18:51:47.745Z,10.40
2022-11-07T18:54:14.763Z,8.00
2022-11-07T18:56:41.593Z,8.00
2022-11-07T18:59:08.388Z,8.00
2022-11-07T19:01:35.319Z,9.00
2022-11-07T19:04:03.527Z,8.00
2022-11-07T19:06:30.316Z,7.90
2022-11-07T19:08:57.457Z,6.50
2022-11-07T19:11:26.506Z,9.40
2022-11-07T19:13:53.497Z,7.80
2022-11-07T19:16:21.779Z,9.70
2022-11-07T19:18:49.837Z,6.00
2022-11-07T19:21:20.154Z,10.00
2022-11-07T19:23:47.275Z,7.80
2022-11-07T19:26:14.100Z,11.10
2022-11-07T19:28:40.958Z,7.60
2022-11-07T19:31:09.320Z,7.60
2022-11-07T19:33:36.114Z,7.60
2022-11-07T19:36:03.971Z,5.60
2022-11-07T19:38:31.276Z,5.90
2022-11-07T19:40:58.131Z,7.50
2022-11-07T19:43:24.937Z,9.50
2022-11-07T19:45:51.800Z,9.70
2022-11-07T19:48:19.161Z,7.50
2022-11-07T19:50:46.199Z,9.10
2022-11-07T19:53:12.929Z,4.90
2022-11-07T19:55:39.660Z,10.70
2022-11-07T19:58:06.429Z,5.40
2022-11-07T20:00:33.287Z,8.70
2022-11-07T20:03:00.191Z,8.40
2022-11-07T20:05:27.910Z,7.40
2022-11-07T20:07:58.090Z,10.00
2022-11-07T20:10:26.296Z,4.10
2022-11-07T20:12:53.104Z,10.00
2022-11-07T20:15:20.209Z,7.30
2022-11-07T20:17:47.013Z,9.00
2022-11-07T20:20:14.079Z,3.90
2022-11-07T20:22:46.102Z,9.40
2022-11-07T20:25:13.218Z,4.70
2022-11-07T20:27:40.229Z,9.10
2022-11-07T20:30:07.406Z,4.10
2022-11-07T20:32:34.187Z,6.10
2022-11-07T20:35:00.950Z,5.30
2022-11-07T20:37:27.779Z,7.40
2022-11-07T20:39:54.691Z,7.40
2022-11-07T20:42:21.454Z,7.50
2022-11-07T20:44:48.918Z,7.50
2022-11-07T20:47:15.702Z,7.50
2022-11-07T20:49:42.682Z,10.00
2022-11-07T20:52:09.535Z,7.20
2022-11-07T20:54:36.447Z,9.00
2022-11-07T20:57:03.483Z,7.50
2022-11-07T20:59:31.495Z,7.50
2022-11-07T21:02:03.113Z,7.50
2022-11-07T21:04:44.485Z,9.60
2022-11-07T21:07:19.711Z,5.30
2022-11-07T21:09:46.732Z,7.60
2022-11-07T21:12:13.555Z,7.50
2022-11-07T21:14:42.301Z,10.10
2022-11-07T21:17:09.770Z,7.50
2022-11-07T21:19:36.640Z,9.00
2022-11-07T21:22:04.199Z,4.30
2022-11-07T21:24:31.670Z,9.90
2022-11-07T21:26:58.750Z,7.00
2022-11-07T21:29:29.641Z,9.90
2022-11-07T21:31:56.958Z,7.50
2022-11-07T21:34:23.899Z,7.50
2022-11-07T21:36:50.704Z,4.90
2022-11-07T21:39:17.974Z,10.10
2022-11-07T21:41:44.807Z,7.50
2022-11-07T21:44:11.904Z,7.50
2022-11-07T21:46:38.901Z,6.50
2022-11-07T21:49:06.153Z,7.90
2022-11-07T21:51:34.173Z,6.00
2022-11-07T21:54:01.206Z,9.30
2022-11-07T21:56:28.978Z,5.00
2022-11-07T21:58:56.601Z,9.30
2022-11-07T22:01:23.868Z,7.60
2022-11-07T22:04:06.194Z,9.00
2022-11-07T22:06:34.431Z,5.20
2022-11-07T22:09:01.178Z,9.20
2022-11-07T22:11:27.946Z,5.50
2022-11-07T22:13:54.711Z,7.90
2022-11-07T22:16:21.719Z,6.40
2022-11-07T22:18:48.646Z,10.80
2022-11-07T22:21:17.197Z,8.10
2022-11-07T22:23:43.942Z,10.30
2022-11-07T22:26:11.721Z,8.10
2022-11-07T22:28:42.882Z,9.70
2022-11-07T22:31:22.964Z,6.90
2022-11-07T22:33:49.917Z,8.10
2022-11-07T22:36:16.765Z,8.10
2022-11-07T22:38:43.581Z,9.40
2022-11-07T22:41:11.610Z,6.20
2022-11-07T22:43:38.469Z,9.80
2022-11-07T22:46:06.309Z,8.40
2022-11-07T22:48:33.097Z,8.40
2022-11-07T22:51:06.976Z,7.90
2022-11-07T22:53:34.001Z,8.60
2022-11-07T22:56:09.331Z,7.50
2022-11-07T22:58:36.113Z,8.80
2022-11-07T23:01:02.904Z,7.20
2022-11-07T23:03:30.567Z,10.80
2022-11-07T23:05:57.434Z,9.00
2022-11-07T23:08:24.251Z,9.10
2022-11-07T23:11:13.714Z,9.20
2022-11-07T23:13:44.591Z,9.30
2022-11-07T23:16:27.432Z,9.50
2022-11-07T23:18:57.175Z,9.30
2022-11-07T23:21:24.076Z,7.50
2022-11-07T23:23:52.759Z,10.00
2022-11-07T23:26:19.606Z,9.50
2022-11-07T23:28:46.592Z,9.60
2022-11-07T23:31:13.486Z,6.40
2022-11-07T23:33:40.304Z,9.90
2022-11-07T23:36:07.901Z,9.90
2022-11-07T23:38:34.686Z,9.90
2022-11-07T23:41:05.043Z,10.00
2022-11-07T23:43:31.852Z,10.50
2022-11-07T23:46:17.464Z,9.00
2022-11-07T23:49:02.970Z,12.20
2022-11-07T23:51:29.903Z,10.00
2022-11-07T23:54:15.489Z,10.00
2022-11-07T23:56:42.307Z,10.00
2022-11-07T23:59:27.913Z,11.00
